createdAt,value
2023-03-06T00:02:23.951Z,50.88
2023-03-06T00:07:25.222Z,51.25
2023-03-06T00:12:26.464Z,51.35
2023-03-06T00:17:27.748Z,50.99
2023-03-06T00:22:29.060Z,50.92
2023-03-06T00:27:30.334Z,50.97
2023-03-06T00:32:31.602Z,50.55
2023-03-06T00:37:32.883Z,50.56
2023-03-06T00:42:34.128Z,50.95
2023-03-06T00:47:35.419Z,50.98
2023-03-06T00:52:36.708Z,51.07
2023-03-06T00:57:37.959Z,50.89
2023-03-06T01:02:39.251Z,50.53
2023-03-06T01:07:40.523Z,50.20
2023-03-06T01:12:41.761Z,50.29
2023-03-06T01:17:43.058Z,49.96
2023-03-06T01:22:44.324Z,50.01
2023-03-06T01:27:45.530Z,49.48
2023-03-06T01:32:46.830Z,49.58
2023-03-06T01:37:48.130Z,49.96
2023-03-06T01:42:49.430Z,49.81
2023-03-06T01:47:50.775Z,49.84
2023-03-06T01:52:52.091Z,50.02
2023-03-06T01:57:53.397Z,49.75
2023-03-06T02:02:54.640Z,49.54
2023-03-06T02:07:55.899Z,49.52
2023-03-06T02:12:57.216Z,49.82
2023-03-06T02:17:58.475Z,49.66
2023-03-06T02:22:59.775Z,49.94
2023-03-06T02:28:01.086Z,49.82
2023-03-06T02:33:02.363Z,50.24
2023-03-06T02:38:03.665Z,49.99
2023-03-06T02:43:04.904Z,50.32
2023-03-06T02:48:06.219Z,50.25
2023-03-06T02:53:07.537Z,49.93
2023-03-06T02:58:08.840Z,50.06
2023-03-06T03:03:10.165Z,50.21
2023-03-06T03:08:11.466Z,50.14
2023-03-06T03:13:12.752Z,50.21
2023-03-06T03:18:14.015Z,50.26
2023-03-06T03:23:15.283Z,50.28
2023-03-06T03:28:16.610Z,49.75
2023-03-06T03:33:17.915Z,49.65
2023-03-06T03:38:19.207Z,49.95
2023-03-06T03:43:20.452Z,49.82
2023-03-06T03:48:21.710Z,49.71
2023-03-06T03:53:23.132Z,50.03
2023-03-06T03:58:24.437Z,49.54
2023-03-06T04:03:25.764Z,49.72
2023-03-06T04:08:27.013Z,49.53
2023-03-06T04:13:28.287Z,49.34
2023-03-06T04:18:29.644Z,49.42
2023-03-06T04:23:30.931Z,49.21
2023-03-06T04:28:32.269Z,49.33
2023-03-06T04:33:33.634Z,49.59
2023-03-06T04:38:35.026Z,49.63
2023-03-06T04:43:36.382Z,49.84
2023-03-06T04:48:37.717Z,49.83
2023-03-06T04:53:39.349Z,50.04
2023-03-06T04:58:40.657Z,49.93
2023-03-06T05:03:41.991Z,49.69
2023-03-06T05:08:43.425Z,49.76
2023-03-06T05:13:44.752Z,49.36
2023-03-06T05:18:46.176Z,49.13
2023-03-06T05:23:47.612Z,49.07
2023-03-06T05:28:48.937Z,49.10
2023-03-06T05:33:50.340Z,49.09
2023-03-06T05:38:51.719Z,49.28
2023-03-06T05:43:53.084Z,49.16
2023-03-06T05:48:54.459Z,49.41
2023-03-06T05:53:55.853Z,48.90
2023-03-06T05:58:57.233Z,49.33
2023-03-06T06:03:58.633Z,49.08
2023-03-06T06:08:59.958Z,49.09
2023-03-06T06:14:01.283Z,48.85
2023-03-06T06:19:02.584Z,49.02
2023-03-06T06:24:03.950Z,48.89
2023-03-06T06:29:05.269Z,49.05
2023-03-06T06:34:06.576Z,48.98
2023-03-06T06:39:07.832Z,48.93
2023-03-06T06:44:09.095Z,48.90
2023-03-06T06:49:10.381Z,48.66
2023-03-06T06:54:11.663Z,48.63
2023-03-06T06:59:17.524Z,48.99
2023-03-06T07:04:18.952Z,49.01
2023-03-06T07:09:20.251Z,48.81
2023-03-06T07:14:21.591Z,48.98
2023-03-06T07:19:22.873Z,48.71
2023-03-06T07:24:24.203Z,48.45
2023-03-06T07:29:25.495Z,48.24
2023-03-06T07:34:26.835Z,47.77
2023-03-06T07:39:28.189Z,47.71
2023-03-06T07:44:29.487Z,47.47
2023-03-06T07:49:30.824Z,47.74
2023-03-06T07:54:32.139Z,47.29
2023-03-06T07:59:33.375Z,47.59
2023-03-06T08:04:34.673Z,47.10
2023-03-06T08:09:35.997Z,47.22
2023-03-06T08:14:37.259Z,46.99
2023-03-06T08:19:38.504Z,47.25
2023-03-06T08:24:39.801Z,47.15
2023-03-06T08:29:41.120Z,46.83
2023-03-06T08:34:42.394Z,46.55
2023-03-06T08:39:43.697Z,46.42
2023-03-06T08:44:45.004Z,46.30
2023-03-06T08:49:46.314Z,45.88
2023-03-06T08:54:47.629Z,46.37
2023-03-06T08:59:48.995Z,46.21
2023-03-06T09:04:50.360Z,46.27
2023-03-06T09:09:51.655Z,46.22
2023-03-06T09:14:52.992Z,45.86
2023-03-06T09:19:54.252Z,46.30
2023-03-06T09:24:55.515Z,46.19
2023-03-06T09:29:56.766Z,45.88
2023-03-06T09:34:58.045Z,45.83
2023-03-06T09:39:59.370Z,46.15
2023-03-06T09:45:00.669Z,45.81
2023-03-06T09:50:01.921Z,45.68
2023-03-06T09:55:03.285Z,45.89
2023-03-06T10:00:04.739Z,45.81
2023-03-06T10:05:06.209Z,45.79
2023-03-06T10:10:07.632Z,45.48
2023-03-06T10:15:08.947Z,45.52
2023-03-06T10:20:10.237Z,45.32
2023-03-06T10:25:11.500Z,45.25
2023-03-06T10:30:12.766Z,44.85
2023-03-06T10:35:14.035Z,45.42
2023-03-06T10:40:15.345Z,45.48
2023-03-06T10:45:16.736Z,44.76
2023-03-06T10:50:18.040Z,45.10
2023-03-06T10:55:19.348Z,45.51
2023-03-06T11:00:20.755Z,44.89
2023-03-06T11:05:22.117Z,45.13
2023-03-06T11:10:23.455Z,44.70
2023-03-06T11:15:24.807Z,45.38
2023-03-06T11:20:26.166Z,44.50
2023-03-06T11:25:27.477Z,45.12
2023-03-06T11:30:28.801Z,44.64
2023-03-06T11:35:30.087Z,44.55
2023-03-06T11:40:31.346Z,44.42
2023-03-06T11:45:32.610Z,45.30
2023-03-06T11:50:33.924Z,44.61
2023-03-06T11:55:35.304Z,45.10
2023-03-06T12:00:36.672Z,44.95
2023-03-06T12:05:38.028Z,45.36
2023-03-06T12:10:39.505Z,45.20
2023-03-06T12:15:40.804Z,45.24
2023-03-06T12:20:42.125Z,45.65
2023-03-06T12:25:43.429Z,45.52
2023-03-06T12:30:44.751Z,45.13
2023-03-06T12:35:46.048Z,45.55
2023-03-06T12:40:47.313Z,45.83
2023-03-06T12:45:48.594Z,45.64
2023-03-06T12:50:49.908Z,45.71
2023-03-06T12:55:51.189Z,45.72
2023-03-06T13:00:55.349Z,45.50
2023-03-06T13:05:59.936Z,45.88
2023-03-06T13:11:01.250Z,45.73
2023-03-06T13:16:02.561Z,46.12
2023-03-06T13:21:03.848Z,45.45
2023-03-06T13:26:05.124Z,45.99
2023-03-06T13:31:10.582Z,45.70
2023-03-06T13:36:14.004Z,46.19
2023-03-06T13:41:15.348Z,45.73
2023-03-06T13:46:16.640Z,45.92
2023-03-06T13:51:17.971Z,45.87
2023-03-06T13:56:19.304Z,45.98
2023-03-06T14:01:20.652Z,45.75
2023-03-06T14:06:22.032Z,45.72
2023-03-06T14:11:23.321Z,45.97
2023-03-06T14:16:24.775Z,45.65
2023-03-06T14:21:26.123Z,46.01
2023-03-06T14:26:27.412Z,45.41
2023-03-06T14:31:28.688Z,45.70
2023-03-06T14:36:30.120Z,45.32
2023-03-06T14:41:31.424Z,45.17
2023-03-06T14:46:32.781Z,45.08
2023-03-06T14:51:34.105Z,45.33
2023-03-06T14:56:35.410Z,45.12
2023-03-06T15:01:36.770Z,45.31
2023-03-06T15:06:38.234Z,45.40
2023-03-06T15:11:39.667Z,44.82
2023-03-06T15:16:40.996Z,44.94
2023-03-06T15:21:42.333Z,44.92
2023-03-06T15:26:43.581Z,45.18
2023-03-06T15:31:44.890Z,44.87
2023-03-06T15:36:46.276Z,45.04
2023-03-06T15:41:47.534Z,45.14
2023-03-06T15:46:51.846Z,45.25
2023-03-06T15:51:55.182Z,44.98
2023-03-06T15:56:56.484Z,45.44
2023-03-06T16:01:57.818Z,45.46
2023-03-06T16:06:59.126Z,45.87
2023-03-06T16:12:00.439Z,45.61
2023-03-06T16:17:01.778Z,45.95
2023-03-06T16:22:03.089Z,46.47
2023-03-06T16:27:04.417Z,46.09
2023-03-06T16:32:05.733Z,45.82
2023-03-06T16:37:07.091Z,45.98
2023-03-06T16:42:08.409Z,45.66
2023-03-06T16:47:09.672Z,45.41
2023-03-06T16:52:10.983Z,45.59
2023-03-06T16:57:12.236Z,46.10
2023-03-06T17:02:13.548Z,46.67
2023-03-06T17:07:14.972Z,46.74
2023-03-06T17:12:16.257Z,46.99
2023-03-06T17:17:17.555Z,46.65
2023-03-06T17:22:18.916Z,46.74
2023-03-06T17:27:20.264Z,46.44
2023-03-06T17:32:21.720Z,46.22
2023-03-06T17:37:23.494Z,46.15
2023-03-06T17:42:25.139Z,45.80
2023-03-06T17:47:26.473Z,46.11
2023-03-06T17:52:27.751Z,45.77
2023-03-06T17:57:28.998Z,46.10
2023-03-06T18:02:30.239Z,45.75
2023-03-06T18:07:31.543Z,45.75
2023-03-06T18:12:32.908Z,46.17
2023-03-06T18:17:34.216Z,45.85
2023-03-06T18:22:35.524Z,45.77
2023-03-06T18:27:36.774Z,46.31
2023-03-06T18:32:38.143Z,46.01
2023-03-06T18:37:39.407Z,46.23
2023-03-06T18:42:40.749Z,46.16
2023-03-06T18:47:42.058Z,46.56
2023-03-06T18:52:43.362Z,46.48
2023-03-06T18:57:44.680Z,46.43
2023-03-06T19:02:45.988Z,46.32
2023-03-06T19:07:47.425Z,47.26
2023-03-06T19:12:48.721Z,47.21
2023-03-06T19:17:49.985Z,46.98
2023-03-06T19:22:51.381Z,47.06
2023-03-06T19:27:53.338Z,47.37
2023-03-06T19:32:54.877Z,47.36
2023-03-06T19:37:56.196Z,47.02
2023-03-06T19:42:57.459Z,47.51
2023-03-06T19:47:58.739Z,47.50
2023-03-06T19:53:00.110Z,47.88
2023-03-06T19:58:01.436Z,47.76
2023-03-06T20:03:02.816Z,47.61
2023-03-06T20:08:04.179Z,47.52
2023-03-06T20:13:05.564Z,47.78
2023-03-06T20:18:06.915Z,48.87
2023-03-06T20:23:08.369Z,48.27
2023-03-06T20:28:09.696Z,48.12
2023-03-06T20:33:11.273Z,48.46
2023-03-06T20:38:13.986Z,48.82
2023-03-06T20:43:15.608Z,48.65
2023-03-06T20:48:17.202Z,48.23
2023-03-06T20:53:19.218Z,48.67
2023-03-06T20:58:21.274Z,48.78
2023-03-06T21:03:23.188Z,48.56
2023-03-06T21:08:24.614Z,48.36
2023-03-06T21:13:26.529Z,48.10
2023-03-06T21:18:29.544Z,48.83
2023-03-06T21:23:31.061Z,49.13
2023-03-06T21:28:32.798Z,49.33
2023-03-06T21:33:35.272Z,49.62
2023-03-06T21:38:37.012Z,49.66
2023-03-06T21:43:38.472Z,49.52
2023-03-06T21:48:39.836Z,49.58
2023-03-06T21:53:41.186Z,49.70
2023-03-06T21:58:42.536Z,49.76
2023-03-06T22:03:44.056Z,49.60
2023-03-06T22:08:45.995Z,49.62
2023-03-06T22:13:47.711Z,49.74
2023-03-06T22:18:49.439Z,49.41
2023-03-06T22:23:50.935Z,49.27
2023-03-06T22:28:53.505Z,49.23
2023-03-06T22:33:56.637Z,49.44
2023-03-06T22:38:58.407Z,49.46
2023-03-06T22:44:00.425Z,49.20
2023-03-06T22:49:03.396Z,49.45
2023-03-06T22:54:06.011Z,49.32
2023-03-06T22:59:07.876Z,49.49
2023-03-06T23:04:10.171Z,49.51
2023-03-06T23:09:12.088Z,49.93
2023-03-06T23:14:13.761Z,49.55
2023-03-06T23:19:15.285Z,49.54
2023-03-06T23:24:17.762Z,50.02
2023-03-06T23:29:19.492Z,49.66
2023-03-06T23:34:22.208Z,49.89
2023-03-06T23:39:24.444Z,49.73
2023-03-06T23:44:25.895Z,49.58
2023-03-06T23:49:27.553Z,49.78
2023-03-06T23:54:29.023Z,49.60
2023-03-06T23:59:30.456Z,49.55
